Terminal Aerodrome Forecast
Issued by NWS

Home | Current Version | Previous Version | Text Only | Print | Product List | Glossary On
Versions: 1 2 3 4 5 6 7 8 9 10 11 12 13 14 15 16 17 18 19 20 21 22 23 24 25 26 27 28 29 30 31 32 33 34 35 36 37 38 39 40 41 42
000
FTUS41 KBOX 240748 AAA
TAFHYA
TAF AMD
KHYA 240748Z 2408/2506 11008KT P6SM BKN100
     FM241100 10011G18KT P6SM -RA OVC080
     FM241500 08017G28KT 3SM RA BR OVC040
     FM241700 07017G27KT 3SM -RA BR OVC015
     FM242100 09008KT 3SM BR VCSH SCT008 OVC010
     FM242300 02006KT 3SM BR BKN008
     FM250100 36010G17KT P6SM BKN008=

USA.gov is the U.S. government's official web portal to all federal, state and local government web resources and services.